createdAt,value
2019-02-26T00:01:04.029Z,21.37
2019-02-26T00:03:35.289Z,18.70
2019-02-26T00:06:04.721Z,20.60
2019-02-26T00:08:34.180Z,19.00
2019-02-26T00:11:06.047Z,20.67
2019-02-26T00:13:36.563Z,19.57
2019-02-26T00:16:08.002Z,20.27
2019-02-26T00:18:37.546Z,19.80
2019-02-26T00:21:06.996Z,19.27
2019-02-26T00:23:36.491Z,20.67
2019-02-26T00:26:05.992Z,21.00
2019-02-26T00:28:36.547Z,22.37
2019-02-26T00:31:06.684Z,18.53
2019-02-26T00:33:36.183Z,21.47
2019-02-26T00:36:07.168Z,20.23
2019-02-26T00:38:37.739Z,19.73
2019-02-26T00:41:08.200Z,19.30
2019-02-26T00:43:37.647Z,21.03
2019-02-26T00:46:08.563Z,20.03
2019-02-26T00:48:40.610Z,19.47
2019-02-26T00:51:09.493Z,20.87
2019-02-26T00:53:38.950Z,20.43
2019-02-26T00:56:10.306Z,19.73
2019-02-26T00:58:41.587Z,18.00
2019-02-26T01:01:12.935Z,21.20
2019-02-26T01:03:43.047Z,21.40
2019-02-26T01:06:13.200Z,20.40
2019-02-26T01:08:44.733Z,19.87
2019-02-26T01:11:13.850Z,19.63
2019-02-26T01:13:43.298Z,20.53
2019-02-26T01:16:12.818Z,20.27
2019-02-26T01:18:44.267Z,19.93
2019-02-26T01:21:13.484Z,20.47
2019-02-26T01:23:42.933Z,19.00
2019-02-26T01:26:12.603Z,19.07
2019-02-26T01:28:44.156Z,22.70
2019-02-26T01:31:13.228Z,22.50
2019-02-26T01:33:42.731Z,19.27
2019-02-26T01:36:13.874Z,21.97
2019-02-26T01:38:45.867Z,22.77
2019-02-26T01:41:15.751Z,21.00
2019-02-26T01:43:45.785Z,20.37
2019-02-26T01:46:16.961Z,21.10
2019-02-26T01:48:48.154Z,21.20
2019-02-26T01:51:19.366Z,23.00
2019-02-26T01:53:51.048Z,21.77
2019-02-26T01:56:20.561Z,21.83
2019-02-26T01:58:56.514Z,20.93
2019-02-26T02:01:23.274Z,22.30
2019-02-26T02:03:53.828Z,23.37
2019-02-26T02:06:23.649Z,23.83
2019-02-26T02:08:55.536Z,23.33
2019-02-26T02:11:28.278Z,21.00
2019-02-26T02:13:55.725Z,21.50
2019-02-26T02:16:28.551Z,24.73
2019-02-26T02:18:58.185Z,22.43
2019-02-26T02:21:30.962Z,23.10
2019-02-26T02:23:59.650Z,23.87
2019-02-26T02:26:29.248Z,22.77
2019-02-26T02:28:58.779Z,21.93
2019-02-26T02:31:31.214Z,24.50
2019-02-26T02:33:59.426Z,20.63
2019-02-26T02:36:28.889Z,21.40
2019-02-26T02:38:58.347Z,21.93
2019-02-26T02:41:27.832Z,24.87
2019-02-26T02:43:57.306Z,23.47
2019-02-26T02:46:26.818Z,23.67
2019-02-26T02:48:56.638Z,24.17
2019-02-26T02:51:28.019Z,25.13
2019-02-26T02:53:59.219Z,23.90
2019-02-26T02:56:30.764Z,26.20
2019-02-26T02:58:59.810Z,25.67
2019-02-26T03:01:29.272Z,23.57
2019-02-26T03:04:01.034Z,23.83
2019-02-26T03:06:30.612Z,24.60
2019-02-26T03:09:01.128Z,26.70
2019-02-26T03:11:35.919Z,23.60
2019-02-26T03:14:01.847Z,24.80
2019-02-26T03:16:31.315Z,23.53
2019-02-26T03:19:00.807Z,26.53
2019-02-26T03:21:30.650Z,25.90
2019-02-26T03:24:02.894Z,25.20
2019-02-26T03:26:31.719Z,26.17
2019-02-26T03:29:01.247Z,24.20
2019-02-26T03:31:34.852Z,24.30
2019-02-26T03:34:08.700Z,24.17
2019-02-26T03:36:34.238Z,25.70
2019-02-26T03:39:05.217Z,24.90
2019-02-26T03:41:34.711Z,27.63
2019-02-26T03:44:08.212Z,25.50
2019-02-26T03:46:35.460Z,23.90
2019-02-26T03:49:05.159Z,26.17
2019-02-26T03:51:39.088Z,24.67
2019-02-26T03:54:06.808Z,25.80
2019-02-26T03:56:36.419Z,25.60
2019-02-26T03:59:06.804Z,25.80
2019-02-26T04:01:37.344Z,26.47
2019-02-26T04:04:07.677Z,28.10
2019-02-26T04:06:38.929Z,27.73
2019-02-26T04:09:10.929Z,25.80
2019-02-26T04:11:44.700Z,27.30
2019-02-26T04:14:12.634Z,26.37
2019-02-26T04:16:43.631Z,26.50
2019-02-26T04:19:13.192Z,24.20
2019-02-26T04:22:26.526Z,25.23
2019-02-26T04:25:01.491Z,27.20
2019-02-26T04:27:42.115Z,25.17
2019-02-26T04:30:36.547Z,25.80
2019-02-26T04:33:49.665Z,25.43
2019-02-26T04:36:29.709Z,25.50
2019-02-26T04:39:40.322Z,26.80
2019-02-26T04:42:17.547Z,24.60
2019-02-26T04:45:23.525Z,22.47
2019-02-26T04:48:00.786Z,25.87
2019-02-26T04:50:35.042Z,25.30
2019-02-26T04:53:04.879Z,28.33
2019-02-26T04:55:36.069Z,25.23
2019-02-26T04:58:04.651Z,26.07
2019-02-26T05:00:37.962Z,25.63
2019-02-26T05:03:07.903Z,27.63
2019-02-26T05:05:37.239Z,25.90
2019-02-26T05:08:09.738Z,26.30
2019-02-26T05:10:37.827Z,25.10
2019-02-26T05:13:09.511Z,28.27
2019-02-26T05:15:38.484Z,25.23
2019-02-26T05:18:07.938Z,25.40
2019-02-26T05:20:40.136Z,28.40
2019-02-26T05:23:08.602Z,24.93
2019-02-26T05:25:39.626Z,23.17
2019-02-26T05:28:11.737Z,25.27
2019-02-26T05:30:43.221Z,27.27
2019-02-26T05:33:11.632Z,25.10
2019-02-26T05:35:43.806Z,27.10
2019-02-26T05:38:12.301Z,26.67
2019-02-26T05:40:42.846Z,27.03
2019-02-26T05:43:13.008Z,28.90
2019-02-26T05:45:42.469Z,26.60
2019-02-26T05:48:12.682Z,27.20
2019-02-26T05:50:44.671Z,26.27
2019-02-26T05:53:14.453Z,26.93
2019-02-26T05:55:47.470Z,27.70
2019-02-26T05:58:18.092Z,26.77
2019-02-26T06:00:46.308Z,28.23
2019-02-26T06:03:18.566Z,27.17
2019-02-26T06:05:48.931Z,27.70
2019-02-26T06:08:18.231Z,28.90
2019-02-26T06:10:48.108Z,24.70
2019-02-26T06:13:17.963Z,28.60
2019-02-26T06:15:47.420Z,27.70
2019-02-26T06:18:16.929Z,29.10
2019-02-26T06:20:48.492Z,31.73
2019-02-26T06:23:17.559Z,29.30
2019-02-26T06:25:47.047Z,29.00
2019-02-26T06:28:18.563Z,26.37
2019-02-26T06:30:47.708Z,28.47
2019-02-26T06:33:17.199Z,26.53
2019-02-26T06:35:46.681Z,28.43
2019-02-26T06:38:16.217Z,27.90
2019-02-26T06:40:48.759Z,27.37
2019-02-26T06:43:17.094Z,27.77
2019-02-26T06:45:47.814Z,26.40
2019-02-26T06:48:20.191Z,27.97
2019-02-26T06:50:48.595Z,29.07
2019-02-26T06:53:19.315Z,26.47
2019-02-26T06:55:49.315Z,28.13
2019-02-26T06:58:22.735Z,30.40
2019-02-26T07:00:55.204Z,27.47
2019-02-26T07:03:24.790Z,29.20
2019-02-26T07:05:54.425Z,31.30
2019-02-26T07:08:25.975Z,28.30
2019-02-26T07:10:55.111Z,26.37
2019-02-26T07:13:24.578Z,27.83
2019-02-26T07:15:54.065Z,28.73
2019-02-26T07:18:23.533Z,27.17
2019-02-26T07:20:55.240Z,26.60
2019-02-26T07:23:24.178Z,29.67
2019-02-26T07:25:53.671Z,28.70
2019-02-26T07:28:26.435Z,26.20
2019-02-26T07:30:54.321Z,25.83
2019-02-26T07:33:23.809Z,33.27
2019-02-26T07:35:55.157Z,27.63
2019-02-26T07:38:25.186Z,32.40
2019-02-26T07:40:56.529Z,29.30
2019-02-26T07:43:26.818Z,29.17
2019-02-26T07:45:56.282Z,29.07
2019-02-26T07:48:27.144Z,27.20
2019-02-26T07:50:56.975Z,28.43
2019-02-26T07:53:26.462Z,28.73
2019-02-26T07:55:56.842Z,28.73
2019-02-26T07:58:27.161Z,28.63
2019-02-26T08:00:56.639Z,30.50
2019-02-26T08:03:29.408Z,28.00
2019-02-26T08:05:59.876Z,30.03
2019-02-26T08:08:30.258Z,32.07
2019-02-26T08:10:59.735Z,27.73
2019-02-26T08:13:31.579Z,31.70
2019-02-26T08:16:02.357Z,31.00
2019-02-26T08:18:31.563Z,29.83
2019-02-26T08:21:02.993Z,30.00
2019-02-26T08:23:32.188Z,31.53
2019-02-26T08:26:02.260Z,30.53
2019-02-26T08:28:31.850Z,29.23
2019-02-26T08:31:01.369Z,30.23
2019-02-26T08:33:30.888Z,31.47
2019-02-26T08:36:00.333Z,30.20
2019-02-26T08:38:30.304Z,28.53
2019-02-26T08:40:59.800Z,32.57
2019-02-26T08:43:29.258Z,28.70
2019-02-26T08:45:58.725Z,31.00
2019-02-26T08:48:28.201Z,30.67
2019-02-26T08:51:00.804Z,29.40
2019-02-26T08:53:29.804Z,30.80
2019-02-26T08:56:01.973Z,31.63
2019-02-26T08:58:31.273Z,30.80
2019-02-26T09:01:00.759Z,30.23
2019-02-26T09:03:30.238Z,22.20
2019-02-26T09:06:10.966Z,26.90
2019-02-26T09:08:32.940Z,28.50
2019-02-26T09:11:03.456Z,28.73
2019-02-26T09:13:35.709Z,28.70
2019-02-26T09:16:06.160Z,30.70
2019-02-26T09:18:38.222Z,30.17
2019-02-26T09:21:07.234Z,33.37
2019-02-26T09:23:36.672Z,32.10
2019-02-26T09:26:25.318Z,33.77
2019-02-26T09:28:57.035Z,34.47
2019-02-26T09:31:25.961Z,32.17
2019-02-26T09:33:55.447Z,30.13
2019-02-26T09:36:26.197Z,30.60
2019-02-26T09:38:56.072Z,26.50
2019-02-26T09:41:25.568Z,32.33
2019-02-26T09:43:55.034Z,31.47
2019-02-26T09:46:24.496Z,33.77
2019-02-26T09:48:53.986Z,33.40
2019-02-26T09:51:23.434Z,30.97
2019-02-26T09:53:54.797Z,34.40
2019-02-26T09:56:24.085Z,34.70
2019-02-26T09:58:53.548Z,32.53
2019-02-26T10:01:23.016Z,34.60
2019-02-26T10:03:54.195Z,32.63
2019-02-26T10:06:23.682Z,37.97
2019-02-26T10:08:55.567Z,32.20
2019-02-26T10:11:26.130Z,33.70
2019-02-26T10:13:55.531Z,32.03
2019-02-26T10:16:25.719Z,35.33
2019-02-26T10:18:56.810Z,33.27
2019-02-26T10:21:26.516Z,33.13
2019-02-26T10:23:56.903Z,33.33
2019-02-26T10:26:30.486Z,29.20
2019-02-26T10:29:04.129Z,32.43
2019-02-26T10:31:29.550Z,33.00
2019-02-26T10:33:59.051Z,31.10
2019-02-26T10:36:32.514Z,32.83
2019-02-26T10:39:00.758Z,32.63
2019-02-26T10:41:30.939Z,32.80
2019-02-26T10:44:00.407Z,31.40
2019-02-26T10:46:32.119Z,29.53
2019-02-26T10:49:01.072Z,29.20
2019-02-26T10:51:30.526Z,28.10
2019-02-26T10:54:02.602Z,29.27
2019-02-26T10:56:35.451Z,28.97
2019-02-26T10:59:05.457Z,33.57
2019-02-26T11:01:33.893Z,28.70
2019-02-26T11:04:04.443Z,29.53
2019-02-26T11:06:36.679Z,24.47
2019-02-26T11:09:14.360Z,28.80
2019-02-26T11:11:42.536Z,28.90
2019-02-26T11:14:16.000Z,27.53
2019-02-26T11:16:43.195Z,25.27
2019-02-26T11:19:12.660Z,29.10
2019-02-26T11:21:42.189Z,25.53
2019-02-26T11:24:11.694Z,27.27
2019-02-26T11:26:43.720Z,25.43
2019-02-26T11:29:12.384Z,26.70
2019-02-26T11:31:44.581Z,25.77
2019-02-26T11:34:13.446Z,25.93
2019-02-26T11:36:43.037Z,24.27
2019-02-26T11:39:12.696Z,19.97
2019-02-26T11:41:42.181Z,25.87
2019-02-26T11:44:12.739Z,27.93
2019-02-26T11:46:44.530Z,25.63
2019-02-26T11:49:14.856Z,26.47
2019-02-26T11:51:45.381Z,26.20
2019-02-26T11:54:17.497Z,26.63
2019-02-26T11:56:49.891Z,30.40
2019-02-26T11:59:19.491Z,26.03
2019-02-26T12:01:49.078Z,26.73
2019-02-26T12:04:18.551Z,25.40
2019-02-26T12:06:48.018Z,26.50
2019-02-26T12:09:19.785Z,26.27
2019-02-26T12:11:49.757Z,25.47
2019-02-26T12:14:21.552Z,26.10
2019-02-26T12:16:50.425Z,27.77
2019-02-26T12:19:19.896Z,25.77
2019-02-26T12:21:51.449Z,28.20
2019-02-26T12:24:20.566Z,25.20
2019-02-26T12:26:51.898Z,26.07
2019-02-26T12:29:23.442Z,26.27
2019-02-26T12:31:53.879Z,25.80
2019-02-26T12:34:23.799Z,26.70
2019-02-26T12:36:56.380Z,25.10
2019-02-26T12:39:25.059Z,24.00
2019-02-26T12:41:55.641Z,23.80
2019-02-26T12:44:25.095Z,24.37
2019-02-26T12:46:56.690Z,24.63
2019-02-26T12:49:25.814Z,23.83
2019-02-26T12:51:56.707Z,22.90
2019-02-26T12:54:27.748Z,23.00
2019-02-26T12:57:00.427Z,24.50
2019-02-26T12:59:28.868Z,25.80
2019-02-26T13:01:59.044Z,26.33
2019-02-26T13:04:28.509Z,26.33
2019-02-26T13:06:57.970Z,21.43
2019-02-26T13:09:27.457Z,19.53
2019-02-26T13:12:02.492Z,21.23
2019-02-26T13:14:28.098Z,20.37
2019-02-26T13:17:00.109Z,20.63
2019-02-26T13:19:31.297Z,21.30
2019-02-26T13:22:05.913Z,20.30
2019-02-26T13:24:31.215Z,18.13
2019-02-26T13:27:00.692Z,18.43
2019-02-26T13:29:31.348Z,21.20
2019-02-26T13:32:01.116Z,19.80
2019-02-26T13:34:52.480Z,20.50
2019-02-26T13:37:21.145Z,20.63
2019-02-26T13:39:50.607Z,19.17
2019-02-26T13:42:20.156Z,20.47
2019-02-26T13:44:49.738Z,18.63
2019-02-26T13:47:19.267Z,17.60
2019-02-26T13:49:48.725Z,18.80
2019-02-26T13:52:18.206Z,17.23
2019-02-26T13:54:47.664Z,19.40
2019-02-26T13:57:17.130Z,17.57
2019-02-26T13:59:46.608Z,18.70
2019-02-26T14:02:17.055Z,18.33
2019-02-26T14:04:46.663Z,17.37
2019-02-26T14:07:16.148Z,17.27
2019-02-26T14:09:45.615Z,15.80
2019-02-26T14:12:15.357Z,17.50
2019-02-26T14:14:44.848Z,23.17
2019-02-26T14:17:14.319Z,19.20
2019-02-26T14:19:43.781Z,20.10
2019-02-26T14:22:13.262Z,19.67
2019-02-26T14:24:42.903Z,20.20
2019-02-26T14:27:12.409Z,20.20
2019-02-26T14:29:41.890Z,19.17
2019-02-26T14:32:11.361Z,17.97
2019-02-26T14:34:40.977Z,19.57
2019-02-26T14:37:10.472Z,18.83
2019-02-26T14:39:40.007Z,20.90
2019-02-26T14:42:09.465Z,18.80
2019-02-26T14:44:38.926Z,19.20
2019-02-26T14:47:08.618Z,17.50
2019-02-26T14:49:38.074Z,17.97
2019-02-26T14:52:07.525Z,19.73
2019-02-26T14:54:37.063Z,15.80
2019-02-26T14:57:06.518Z,18.37
2019-02-26T14:59:35.976Z,18.43
2019-02-26T15:02:05.686Z,16.93
2019-02-26T15:04:35.296Z,19.83
2019-02-26T15:07:04.832Z,18.17
2019-02-26T15:09:34.606Z,18.13
2019-02-26T15:12:04.077Z,19.00
2019-02-26T15:14:33.533Z,17.13
2019-02-26T15:17:03.023Z,21.27
2019-02-26T15:19:32.549Z,19.77
2019-02-26T15:22:02.008Z,20.53
2019-02-26T15:24:31.496Z,17.13
2019-02-26T15:27:00.959Z,17.27
2019-02-26T15:29:30.425Z,19.30
2019-02-26T15:31:59.897Z,25.90
2019-02-26T15:34:29.619Z,20.77
2019-02-26T15:36:59.076Z,20.60
2019-02-26T15:39:28.565Z,20.60
2019-02-26T15:41:58.031Z,23.27
2019-02-26T15:44:28.791Z,22.63
2019-02-26T15:46:59.574Z,23.77
2019-02-26T15:49:30.125Z,21.40
2019-02-26T15:51:59.581Z,22.87
2019-02-26T15:54:29.074Z,22.90
2019-02-26T15:57:00.452Z,22.30
2019-02-26T15:59:29.733Z,21.77
2019-02-26T16:01:59.224Z,22.27
2019-02-26T16:04:28.686Z,26.00
2019-02-26T16:06:58.507Z,24.73
2019-02-26T16:09:27.986Z,25.20
2019-02-26T16:11:57.460Z,23.80
2019-02-26T16:14:26.965Z,26.27
2019-02-26T16:16:56.454Z,23.40
2019-02-26T16:19:25.931Z,25.60
2019-02-26T16:21:55.663Z,25.43
2019-02-26T16:24:28.043Z,26.30
2019-02-26T16:26:57.507Z,26.50
2019-02-26T16:29:27.541Z,28.40
2019-02-26T16:31:57.334Z,30.07
2019-02-26T16:34:26.871Z,30.97
2019-02-26T16:36:56.322Z,30.87
2019-02-26T16:39:25.810Z,29.13
2019-02-26T16:41:55.538Z,28.77
2019-02-26T16:44:25.414Z,29.37
2019-02-26T16:46:55.035Z,27.53
2019-02-26T16:49:25.895Z,30.43
2019-02-26T16:51:55.697Z,32.50
2019-02-26T16:54:25.527Z,33.67
2019-02-26T16:56:55.161Z,31.33
2019-02-26T16:59:24.637Z,33.87
2019-02-26T17:01:54.964Z,33.07
2019-02-26T17:04:25.048Z,32.97
2019-02-26T17:06:54.635Z,33.00
2019-02-26T17:09:24.218Z,34.07
2019-02-26T17:11:53.669Z,30.57
2019-02-26T17:14:23.124Z,32.87
2019-02-26T17:16:52.603Z,34.80
2019-02-26T17:19:22.122Z,37.23
2019-02-26T17:21:51.583Z,34.40
2019-02-26T17:24:21.380Z,31.67
2019-02-26T17:26:50.857Z,32.90
2019-02-26T17:29:20.323Z,35.63
2019-02-26T17:31:49.940Z,32.63
2019-02-26T17:34:20.334Z,31.20
2019-02-26T17:36:50.583Z,36.80
2019-02-26T17:39:20.278Z,36.60
2019-02-26T17:41:50.097Z,34.83
2019-02-26T17:44:19.560Z,34.70
2019-02-26T17:46:49.218Z,34.47
2019-02-26T17:49:18.672Z,35.30
2019-02-26T17:51:48.139Z,37.23
2019-02-26T17:54:17.805Z,38.00
2019-02-26T17:56:47.272Z,40.43
2019-02-26T17:59:17.353Z,39.83
2019-02-26T18:01:46.873Z,39.60
2019-02-26T18:04:16.332Z,40.00
2019-02-26T18:06:45.788Z,46.47
2019-02-26T18:09:15.287Z,40.23
2019-02-26T18:11:44.745Z,47.43
2019-02-26T18:14:14.189Z,49.33
2019-02-26T18:16:43.747Z,46.17
2019-02-26T18:19:13.212Z,43.17
2019-02-26T18:21:43.627Z,40.83
2019-02-26T18:24:13.519Z,40.70
2019-02-26T18:26:42.981Z,39.57
2019-02-26T18:29:12.427Z,41.97
2019-02-26T18:31:41.922Z,36.50
2019-02-26T18:34:11.791Z,38.40
2019-02-26T18:36:45.105Z,38.30
2019-02-26T18:39:13.865Z,40.20
2019-02-26T18:41:50.593Z,34.73
2019-02-26T18:44:14.489Z,36.53
2019-02-26T18:46:43.988Z,39.70
2019-02-26T18:49:14.977Z,39.03
2019-02-26T18:51:45.465Z,38.63
2019-02-26T18:54:14.945Z,40.93
2019-02-26T18:56:44.408Z,42.00
2019-02-26T18:59:13.859Z,44.17
2019-02-26T19:01:43.342Z,41.90
2019-02-26T19:04:13.925Z,45.10
2019-02-26T19:06:44.009Z,31.07
2019-02-26T19:09:14.262Z,41.83
2019-02-26T19:11:43.722Z,43.20
2019-02-26T19:14:13.221Z,40.97
2019-02-26T19:16:42.730Z,42.80
2019-02-26T19:19:12.170Z,43.80
2019-02-26T19:21:41.639Z,40.33
2019-02-26T19:24:11.118Z,44.27
2019-02-26T19:26:40.582Z,42.07
2019-02-26T19:29:10.180Z,42.43
2019-02-26T19:31:42.420Z,47.53
2019-02-26T19:34:10.771Z,44.47
2019-02-26T19:36:40.329Z,41.27
2019-02-26T19:39:09.794Z,43.53
2019-02-26T19:41:39.268Z,46.97
2019-02-26T19:44:08.746Z,44.73
2019-02-26T19:46:38.209Z,46.20
2019-02-26T19:49:07.667Z,46.00
2019-02-26T19:51:37.158Z,45.47
2019-02-26T19:54:07.019Z,47.77
2019-02-26T19:56:37.060Z,42.00
2019-02-26T19:59:06.539Z,45.93
2019-02-26T20:01:35.993Z,48.03
2019-02-26T20:04:05.524Z,45.93
2019-02-26T20:06:35.012Z,46.67
2019-02-26T20:09:06.513Z,45.60
2019-02-26T20:11:36.011Z,42.47
2019-02-26T20:14:05.572Z,48.17
2019-02-26T20:16:35.110Z,46.00
2019-02-26T20:19:04.669Z,52.17
2019-02-26T20:21:34.107Z,49.63
2019-02-26T20:24:03.598Z,47.60
2019-02-26T20:26:33.061Z,50.80
2019-02-26T20:29:02.533Z,56.27
2019-02-26T20:31:32.046Z,51.83
2019-02-26T20:34:01.493Z,51.30
2019-02-26T20:36:30.942Z,51.37
2019-02-26T20:39:01.481Z,49.90
2019-02-26T20:41:36.646Z,50.37
2019-02-26T20:44:07.865Z,48.33
2019-02-26T20:46:37.518Z,51.43
2019-02-26T20:49:06.797Z,55.67
2019-02-26T20:51:36.308Z,49.80
2019-02-26T20:54:05.995Z,50.30
2019-02-26T20:56:36.501Z,51.80
2019-02-26T20:59:05.955Z,52.13
2019-02-26T21:01:35.428Z,47.53
2019-02-26T21:04:04.889Z,52.13
2019-02-26T21:06:34.344Z,53.17
2019-02-26T21:09:07.208Z,53.27
2019-02-26T21:11:36.283Z,48.87
2019-02-26T21:14:07.745Z,62.33
2019-02-26T21:16:37.122Z,54.47
2019-02-26T21:19:06.587Z,55.80
2019-02-26T21:21:36.045Z,54.90
2019-02-26T21:24:05.538Z,58.10
2019-02-26T21:26:34.985Z,54.30
2019-02-26T21:29:06.327Z,56.50
2019-02-26T21:31:35.632Z,54.77
2019-02-26T21:34:05.084Z,60.00
2019-02-26T21:36:34.544Z,57.73
2019-02-26T21:39:05.800Z,59.87
2019-02-26T21:41:35.255Z,56.60
2019-02-26T21:44:08.774Z,52.53
2019-02-26T21:46:36.008Z,54.80
2019-02-26T21:49:07.544Z,54.00
2019-02-26T21:51:36.668Z,60.67
2019-02-26T21:54:06.146Z,58.57
2019-02-26T21:56:35.668Z,57.60
2019-02-26T21:59:05.193Z,59.77
2019-02-26T22:01:34.656Z,58.03
2019-02-26T22:04:04.136Z,52.90
2019-02-26T22:06:33.603Z,53.90
2019-02-26T22:09:03.091Z,57.13
2019-02-26T22:11:32.589Z,57.47
2019-02-26T22:14:02.996Z,55.23
2019-02-26T22:16:33.122Z,55.90
2019-02-26T22:19:04.731Z,52.37
2019-02-26T22:21:33.787Z,51.57
2019-02-26T22:24:04.611Z,52.23
2019-02-26T22:26:34.464Z,54.43
2019-02-26T22:29:03.928Z,55.47
2019-02-26T22:31:33.407Z,51.33
2019-02-26T22:34:02.889Z,52.77
2019-02-26T22:36:33.268Z,54.30
2019-02-26T22:39:04.345Z,47.63
2019-02-26T22:41:35.160Z,45.70
2019-02-26T22:44:05.094Z,55.80
2019-02-26T22:46:34.753Z,55.77
2019-02-26T22:49:04.220Z,51.70
2019-02-26T22:51:33.709Z,54.77
2019-02-26T22:54:03.164Z,55.00
2019-02-26T22:56:33.291Z,57.93
2019-02-26T22:59:02.796Z,57.17
2019-02-26T23:01:36.689Z,54.70
2019-02-26T23:04:06.472Z,56.00
2019-02-26T23:06:35.984Z,54.13
2019-02-26T23:09:07.450Z,60.57
2019-02-26T23:11:37.396Z,58.20
2019-02-26T23:14:07.152Z,52.57
2019-02-26T23:16:36.964Z,60.63
2019-02-26T23:19:06.620Z,59.17
2019-02-26T23:21:36.980Z,58.80
2019-02-26T23:24:07.444Z,57.83
2019-02-26T23:26:41.886Z,55.10
2019-02-26T23:29:08.969Z,57.30
2019-02-26T23:31:38.604Z,58.93
2019-02-26T23:34:08.159Z,55.70
2019-02-26T23:36:37.692Z,57.83
2019-02-26T23:39:08.596Z,62.40
2019-02-26T23:41:38.114Z,58.80
2019-02-26T23:44:07.750Z,56.87
2019-02-26T23:46:37.510Z,57.40
2019-02-26T23:49:07.147Z,63.33
2019-02-26T23:51:36.603Z,60.70
2019-02-26T23:54:07.323Z,61.37
2019-02-26T23:56:37.451Z,60.13
2019-02-26T23:59:06.922Z,62.03
